首页
METAR-TAF:

METAR-TAF

机场 :

Pitt-Greenville Airport

格林维尔, 北卡罗来纳州, 美国

纬度: 35-38N, 经度: 077-24W, 海拔: 8米

当前天气观测

该预报发布于20分钟前的23:50 UTC
静风
温度 7°C
湿度 93%
气压 1026 hPa
能見度: 16.1公里
天空无云

METAR: KPGV 172350Z AUTO 00000KT 10SM CLR 07/06 A3029 RMK AO2

时间: 19:10 (00:10 UTC)

预报

该预报发布于50分钟前的23:20 UTC
预报有效从18日的 00点(UTC)到 18日的 24点(UTC)
风速节,风向
能見度: 10公里
天空无云
从 18日的 0300点(UTC)
风速节,风向
能見度: 8.0公里
多云层高于25000英尺
轻雾
短暂存在
从 18日的 08点(UTC)到 18日的 11点(UTC)
能見度: 3.2公里
轻雾
从 18日的 1200点(UTC)
风速4节,风向
能見度: 10公里
散云层高于7000英尺

TAF: KPGV 172320Z 1800/1824 00000KT P6SM SKC FM180300 00000KT 5SM BR BKN250 TEMPO 1808/1811 2SM BR FM181200 09004KT P6SM SCT070 AMD LTD TO CLD VIS AND WIND

超过4000个机场的气象观测和天气预报(METAR&TAF报告)。

可查询的气象台以黄色和红色小点在地图上表示。

将鼠标移到小点上方,可查看气象台名称。

然后点击查看天气观测和预报。

如需切换地图:点击带黑十字的绿色按钮放大地图;点击带横线的绿色按钮缩小地图;或者点击绿色箭头查看邻近地区的地图。


METAR-TAF: